createdAt,value
2023-09-26T00:01:50.951Z,4.55
2023-09-26T00:04:19.460Z,6.43
2023-09-26T00:06:47.762Z,5.40
2023-09-26T00:09:17.703Z,5.78
2023-09-26T00:11:49.041Z,5.13
2023-09-26T00:14:16.997Z,4.85
2023-09-26T00:16:44.542Z,5.70
2023-09-26T00:19:12.353Z,6.30
2023-09-26T00:21:40.026Z,5.80
2023-09-26T00:24:07.776Z,5.65
2023-09-26T00:26:35.668Z,4.65
2023-09-26T00:29:09.459Z,4.50
2023-09-26T00:31:44.621Z,4.88
2023-09-26T00:36:41.156Z,4.55
2023-09-26T00:39:08.733Z,5.18
2023-09-26T00:41:36.834Z,5.57
2023-09-26T00:44:05.340Z,6.30
2023-09-26T00:46:39.225Z,6.28
2023-09-26T00:49:09.692Z,5.05
2023-09-26T00:51:39.942Z,5.10
2023-09-26T00:54:12.356Z,6.38
2023-09-26T00:56:40.411Z,6.28
2023-09-26T00:59:09.187Z,6.55
2023-09-26T01:01:39.148Z,5.18
2023-09-26T01:04:07.717Z,5.90
2023-09-26T01:06:36.222Z,6.93
2023-09-26T01:09:07.168Z,4.90
2023-09-26T01:11:34.925Z,4.50
2023-09-26T01:14:02.832Z,6.93
2023-09-26T01:16:31.093Z,22.15
2023-09-26T01:18:59.229Z,4.93
2023-09-26T01:21:28.728Z,4.88
2023-09-26T01:23:57.989Z,5.25
2023-09-26T01:26:26.771Z,5.43
2023-09-26T01:28:54.592Z,4.50
2023-09-26T01:31:28.538Z,4.18
2023-09-26T01:33:56.059Z,4.80
2023-09-26T01:36:27.922Z,4.20
2023-09-26T01:38:58.501Z,4.35
2023-09-26T01:41:26.898Z,4.10
2023-09-26T01:43:54.762Z,4.22
2023-09-26T01:46:22.803Z,5.05
2023-09-26T01:48:50.708Z,4.43
2023-09-26T01:51:18.299Z,4.95
2023-09-26T01:53:45.842Z,4.75
2023-09-26T01:56:13.565Z,4.00
2023-09-26T01:58:41.857Z,6.88
2023-09-26T02:01:09.572Z,5.43
2023-09-26T02:03:37.978Z,7.57
2023-09-26T02:06:05.756Z,6.75
2023-09-26T02:08:33.331Z,6.07
2023-09-26T02:11:00.874Z,13.27
2023-09-26T02:13:28.593Z,9.07
2023-09-26T02:15:56.404Z,7.30
2023-09-26T02:18:26.059Z,7.43
2023-09-26T02:20:54.568Z,9.85
2023-09-26T02:23:22.148Z,14.63
2023-09-26T02:28:24.208Z,11.55
2023-09-26T02:30:51.841Z,16.38
2023-09-26T02:33:19.510Z,19.25
2023-09-26T02:35:47.498Z,27.23
2023-09-26T02:38:14.968Z,31.83
2023-09-26T02:40:42.546Z,27.27
2023-09-26T02:43:10.077Z,26.70
2023-09-26T02:45:38.125Z,42.25
2023-09-26T02:48:14.319Z,39.20
2023-09-26T02:50:43.967Z,27.42
2023-09-26T02:53:12.276Z,27.70
2023-09-26T02:55:46.499Z,18.30
2023-09-26T02:58:17.218Z,17.58
2023-09-26T03:00:44.897Z,12.13
2023-09-26T03:03:16.904Z,20.60
2023-09-26T03:05:52.740Z,17.75
2023-09-26T03:08:41.415Z,11.30
2023-09-26T03:11:17.046Z,15.60
2023-09-26T03:13:51.755Z,22.55
2023-09-26T03:16:20.562Z,14.30
2023-09-26T03:18:54.116Z,16.95
2023-09-26T03:21:23.127Z,7.32
2023-09-26T03:23:52.167Z,6.65
2023-09-26T03:26:21.032Z,8.35
2023-09-26T03:28:48.715Z,9.07
2023-09-26T03:31:16.335Z,8.15
2023-09-26T03:33:43.856Z,14.63
2023-09-26T03:36:11.474Z,6.50
2023-09-26T03:38:38.909Z,5.18
2023-09-26T03:41:07.680Z,3.78
2023-09-26T03:43:35.098Z,5.15
2023-09-26T03:46:04.484Z,4.43
2023-09-26T03:48:32.750Z,4.90
2023-09-26T03:51:14.255Z,10.07
2023-09-26T03:53:43.249Z,8.52
2023-09-26T03:56:11.077Z,6.22
2023-09-26T03:58:39.294Z,5.68
2023-09-26T04:01:14.230Z,7.32
2023-09-26T04:03:43.966Z,5.78
2023-09-26T04:06:11.565Z,6.32
2023-09-26T04:08:39.086Z,5.50
2023-09-26T04:11:06.682Z,5.85
2023-09-26T04:13:34.327Z,6.07
2023-09-26T04:16:06.579Z,8.73
2023-09-26T04:18:34.304Z,4.68
2023-09-26T04:21:11.273Z,6.88
2023-09-26T04:23:40.439Z,5.95
2023-09-26T04:26:16.023Z,5.93
2023-09-26T04:28:45.064Z,4.75
2023-09-26T04:31:18.277Z,4.70
2023-09-26T04:33:50.137Z,3.72
2023-09-26T04:36:18.116Z,4.82
2023-09-26T04:38:46.924Z,8.30
2023-09-26T04:41:14.775Z,3.90
2023-09-26T04:43:42.334Z,5.28
2023-09-26T04:46:13.866Z,5.10
2023-09-26T04:48:43.066Z,4.90
2023-09-26T04:51:13.199Z,5.32
2023-09-26T04:53:41.481Z,8.48
2023-09-26T04:56:09.429Z,5.22
2023-09-26T04:58:37.099Z,6.15
2023-09-26T05:01:17.211Z,6.85
2023-09-26T05:03:46.216Z,6.72
2023-09-26T05:06:14.409Z,7.53
2023-09-26T05:08:42.335Z,19.80
2023-09-26T05:11:16.322Z,16.67
2023-09-26T05:13:45.183Z,14.23
2023-09-26T05:16:15.108Z,13.52
2023-09-26T05:18:43.186Z,12.35
2023-09-26T05:21:11.105Z,32.95
2023-09-26T05:23:38.609Z,20.88
2023-09-26T05:26:13.598Z,16.35
2023-09-26T05:28:42.222Z,16.15
2023-09-26T05:31:09.959Z,21.27
2023-09-26T05:33:37.681Z,30.35
2023-09-26T05:36:05.670Z,29.13
2023-09-26T05:38:34.992Z,28.80
2023-09-26T05:41:02.588Z,20.90
2023-09-26T05:43:30.499Z,27.90
2023-09-26T05:45:58.201Z,31.60
2023-09-26T05:48:25.869Z,20.17
2023-09-26T05:51:01.020Z,24.73
2023-09-26T05:53:28.645Z,34.03
2023-09-26T05:55:56.195Z,28.67
2023-09-26T05:58:24.170Z,28.35
2023-09-26T06:00:52.743Z,21.17
2023-09-26T06:03:20.410Z,14.95
2023-09-26T06:05:48.084Z,19.15
2023-09-26T06:08:15.580Z,27.73
2023-09-26T06:10:43.109Z,20.25
2023-09-26T06:13:10.710Z,22.98
2023-09-26T06:15:43.125Z,22.15
2023-09-26T06:18:10.709Z,21.52
2023-09-26T06:20:39.749Z,21.38
2023-09-26T06:23:07.324Z,25.73
2023-09-26T06:25:42.511Z,13.70
2023-09-26T06:28:18.126Z,17.17
2023-09-26T06:30:45.732Z,19.70
2023-09-26T06:33:13.543Z,17.98
2023-09-26T06:35:41.149Z,13.52
2023-09-26T06:38:08.692Z,14.82
2023-09-26T06:40:36.299Z,24.90
2023-09-26T06:43:04.056Z,15.40
2023-09-26T06:45:31.973Z,13.20
2023-09-26T06:47:59.912Z,14.15
2023-09-26T06:50:27.408Z,14.10
2023-09-26T06:52:55.029Z,15.32
2023-09-26T06:55:22.804Z,17.73
2023-09-26T06:57:50.358Z,16.35
2023-09-26T07:00:20.589Z,13.43
2023-09-26T07:02:48.603Z,15.80
2023-09-26T07:05:18.174Z,16.75
2023-09-26T07:07:45.763Z,14.68
2023-09-26T07:10:13.348Z,15.25
2023-09-26T07:12:41.469Z,14.02
2023-09-26T07:15:11.528Z,13.07
2023-09-26T07:17:40.906Z,14.63
2023-09-26T07:20:17.486Z,20.70
2023-09-26T07:22:46.321Z,15.93
2023-09-26T07:25:14.035Z,15.80
2023-09-26T07:27:43.838Z,14.18
2023-09-26T07:30:12.652Z,12.90
2023-09-26T07:32:40.766Z,12.13
2023-09-26T07:35:08.624Z,13.55
2023-09-26T07:37:36.217Z,14.82
2023-09-26T07:40:07.006Z,13.88
2023-09-26T07:42:34.727Z,12.07
2023-09-26T07:45:02.351Z,14.55
2023-09-26T07:47:29.818Z,9.93
2023-09-26T07:49:57.339Z,14.15
2023-09-26T07:52:27.861Z,12.07
2023-09-26T07:54:56.046Z,13.02
2023-09-26T07:57:23.628Z,10.38
2023-09-26T07:59:51.267Z,10.38
2023-09-26T08:02:18.934Z,10.35
2023-09-26T08:04:46.562Z,11.60
2023-09-26T08:07:14.427Z,10.82
2023-09-26T08:09:42.160Z,9.20
2023-09-26T08:12:09.898Z,11.73
2023-09-26T08:14:37.409Z,11.52
2023-09-26T08:17:05.099Z,11.43
2023-09-26T08:19:32.692Z,13.80
2023-09-26T08:22:00.254Z,12.15
2023-09-26T08:24:27.761Z,14.48
2023-09-26T08:26:55.876Z,13.98
2023-09-26T08:31:51.183Z,16.33
2023-09-26T08:34:18.783Z,13.30
2023-09-26T08:36:47.976Z,17.05
2023-09-26T08:39:15.588Z,13.30
2023-09-26T08:41:48.706Z,13.52
2023-09-26T08:44:17.134Z,14.80
2023-09-26T08:46:46.096Z,14.40
2023-09-26T08:49:13.863Z,14.73
2023-09-26T08:51:41.385Z,14.45
2023-09-26T08:54:09.297Z,14.90
2023-09-26T08:56:41.622Z,14.05
2023-09-26T08:59:11.344Z,15.55
2023-09-26T09:01:39.050Z,14.35
2023-09-26T09:04:08.362Z,13.60
2023-09-26T09:06:35.981Z,16.38
2023-09-26T09:09:09.282Z,13.07
2023-09-26T09:11:36.983Z,14.32
2023-09-26T09:14:04.649Z,13.68
2023-09-26T09:16:32.335Z,14.18
2023-09-26T09:19:00.336Z,14.20
2023-09-26T09:21:32.958Z,16.08
2023-09-26T09:24:07.568Z,13.05
2023-09-26T09:26:36.887Z,14.98
2023-09-26T09:29:22.830Z,15.48
2023-09-26T09:31:52.527Z,14.68
2023-09-26T09:34:23.164Z,13.70
2023-09-26T09:36:51.631Z,15.05
2023-09-26T09:39:21.054Z,15.23
2023-09-26T09:41:49.911Z,14.60
2023-09-26T09:44:17.548Z,16.48
2023-09-26T09:46:46.697Z,17.27
2023-09-26T09:49:16.119Z,15.25
2023-09-26T09:51:46.922Z,14.25
2023-09-26T09:54:18.785Z,16.00
2023-09-26T09:56:54.291Z,15.70
2023-09-26T09:59:26.923Z,15.18
2023-09-26T10:01:56.468Z,14.90
2023-09-26T10:04:25.223Z,14.30
2023-09-26T10:06:54.716Z,14.48
2023-09-26T10:09:23.726Z,15.82
2023-09-26T10:11:54.290Z,12.95
2023-09-26T10:14:23.843Z,13.77
2023-09-26T10:16:52.180Z,15.40
2023-09-26T10:19:27.388Z,13.13
2023-09-26T10:22:21.259Z,13.02
2023-09-26T10:24:53.802Z,12.73
2023-09-26T10:27:47.285Z,12.65
2023-09-26T10:30:21.051Z,12.52
2023-09-26T10:32:49.345Z,16.55
2023-09-26T10:38:12.234Z,12.05
2023-09-26T10:40:40.104Z,14.32
2023-09-26T10:43:38.201Z,12.35
2023-09-26T10:45:56.746Z,12.85
2023-09-26T10:48:24.999Z,12.20
2023-09-26T10:50:52.649Z,15.65
2023-09-26T10:53:21.056Z,13.75
2023-09-26T10:55:48.714Z,14.40
2023-09-26T11:01:10.061Z,13.40
2023-09-26T11:06:08.575Z,14.70
2023-09-26T11:08:37.315Z,13.00
2023-09-26T11:11:05.153Z,15.48
2023-09-26T11:13:33.298Z,14.18
2023-09-26T11:18:29.501Z,14.23
2023-09-26T11:21:03.135Z,12.45
2023-09-26T11:23:47.797Z,13.32
2023-09-26T11:26:15.312Z,12.30
2023-09-26T11:28:43.095Z,12.43
2023-09-26T11:31:10.754Z,10.13
2023-09-26T11:33:39.082Z,10.88
2023-09-26T11:36:08.102Z,11.75
2023-09-26T11:38:46.639Z,10.95
2023-09-26T11:41:14.118Z,13.35
2023-09-26T11:43:48.666Z,12.00
2023-09-26T11:46:16.687Z,12.05
2023-09-26T11:48:47.189Z,11.13
2023-09-26T11:51:15.329Z,9.23
2023-09-26T11:53:43.040Z,9.40
2023-09-26T11:56:10.771Z,9.30
2023-09-26T11:58:39.321Z,11.27
2023-09-26T12:01:07.023Z,10.50
2023-09-26T12:03:34.586Z,8.98
2023-09-26T12:06:02.571Z,11.27
2023-09-26T12:10:58.024Z,8.20
2023-09-26T12:13:25.558Z,8.07
2023-09-26T12:15:53.274Z,7.32
2023-09-26T12:18:20.867Z,9.82
2023-09-26T12:20:53.968Z,6.07
2023-09-26T12:23:24.627Z,4.75
2023-09-26T12:25:52.294Z,4.75
2023-09-26T12:28:20.206Z,4.65
2023-09-26T12:30:47.712Z,5.05
2023-09-26T12:33:15.439Z,5.78
2023-09-26T12:35:42.981Z,5.38
2023-09-26T12:38:10.541Z,6.43
2023-09-26T12:40:39.101Z,4.65
2023-09-26T12:43:07.226Z,4.13
2023-09-26T12:45:34.765Z,3.97
2023-09-26T12:48:02.345Z,4.88
2023-09-26T12:50:29.932Z,4.35
2023-09-26T12:52:58.869Z,4.88
2023-09-26T12:55:26.453Z,5.47
2023-09-26T12:57:53.943Z,3.67
2023-09-26T13:00:21.673Z,4.60
2023-09-26T13:02:49.457Z,5.38
2023-09-26T13:07:44.591Z,6.80
2023-09-26T13:10:12.561Z,4.35
2023-09-26T13:12:40.177Z,4.70
2023-09-26T13:15:09.593Z,3.30
2023-09-26T13:17:37.950Z,5.32
2023-09-26T13:20:07.713Z,4.72
2023-09-26T13:22:35.294Z,2.97
2023-09-26T13:25:02.847Z,3.80
2023-09-26T13:27:30.411Z,3.50
2023-09-26T13:29:58.021Z,2.90
2023-09-26T13:34:53.531Z,3.97
2023-09-26T13:37:21.052Z,3.15
2023-09-26T13:39:48.553Z,2.50
2023-09-26T13:42:15.976Z,3.53
2023-09-26T13:44:43.495Z,2.88
2023-09-26T13:47:11.557Z,3.20
2023-09-26T13:49:40.179Z,2.88
2023-09-26T13:52:07.749Z,3.30
2023-09-26T13:54:35.290Z,3.58
2023-09-26T13:57:02.853Z,4.05
2023-09-26T13:59:30.394Z,2.60
2023-09-26T14:01:57.975Z,3.53
2023-09-26T14:04:25.604Z,5.00
2023-09-26T14:06:53.154Z,2.45
2023-09-26T14:11:48.252Z,2.40
2023-09-26T14:14:15.837Z,2.75
2023-09-26T14:16:44.285Z,3.08
2023-09-26T14:19:13.466Z,2.42
2023-09-26T14:21:41.144Z,2.35
2023-09-26T14:26:36.567Z,2.85
2023-09-26T14:29:04.266Z,2.33
2023-09-26T14:34:00.012Z,2.90
2023-09-26T14:36:27.881Z,2.33
2023-09-26T14:38:55.406Z,2.00
2023-09-26T14:43:50.361Z,2.08
2023-09-26T14:46:17.948Z,2.65
2023-09-26T14:48:45.888Z,3.00
2023-09-26T14:51:13.467Z,3.00
2023-09-26T14:53:40.927Z,2.58
2023-09-26T14:56:08.411Z,2.60
2023-09-26T14:58:36.133Z,3.58
2023-09-26T15:01:04.212Z,3.58
2023-09-26T15:03:36.884Z,2.92
2023-09-26T15:06:05.078Z,3.15
2023-09-26T15:08:33.388Z,3.25
2023-09-26T15:11:01.656Z,2.92
2023-09-26T15:13:31.027Z,4.15
2023-09-26T15:16:06.786Z,4.57
2023-09-26T15:18:34.721Z,3.97
2023-09-26T15:21:02.866Z,3.92
2023-09-26T15:23:30.457Z,3.13
2023-09-26T15:25:58.070Z,3.40
2023-09-26T15:28:25.642Z,2.70
2023-09-26T15:30:55.625Z,3.85
2023-09-26T15:33:23.422Z,2.97
2023-09-26T15:38:18.478Z,3.20
2023-09-26T15:40:46.247Z,2.47
2023-09-26T15:43:13.792Z,3.35
2023-09-26T15:45:41.795Z,2.80
2023-09-26T15:50:36.928Z,3.78
2023-09-26T15:53:04.659Z,3.72
2023-09-26T15:55:32.217Z,3.00
2023-09-26T15:57:59.968Z,3.22
2023-09-26T16:00:32.290Z,3.75
2023-09-26T16:03:00.380Z,3.42
2023-09-26T16:07:55.231Z,3.33
2023-09-26T16:10:22.672Z,4.63
2023-09-26T16:15:20.641Z,4.03
2023-09-26T16:17:48.240Z,3.58
2023-09-26T16:20:15.821Z,3.85
2023-09-26T16:22:43.437Z,3.72
2023-09-26T16:25:10.960Z,4.22
2023-09-26T16:27:38.515Z,3.47
2023-09-26T16:30:06.809Z,3.38
2023-09-26T16:32:34.391Z,3.53
2023-09-26T16:35:02.060Z,4.63
2023-09-26T16:37:29.671Z,4.20
2023-09-26T16:39:57.250Z,4.20
2023-09-26T16:42:24.850Z,5.28
2023-09-26T16:44:52.405Z,4.88
2023-09-26T16:47:19.966Z,4.65
2023-09-26T16:49:47.668Z,4.65
2023-09-26T16:52:15.185Z,5.13
2023-09-26T16:54:42.661Z,4.40
2023-09-26T16:57:10.247Z,4.50
2023-09-26T16:59:37.786Z,8.63
2023-09-26T17:02:05.890Z,6.10
2023-09-26T17:04:34.592Z,5.25
2023-09-26T17:07:02.337Z,6.15
2023-09-26T17:09:31.877Z,6.03
2023-09-26T17:11:59.367Z,4.88
2023-09-26T17:14:28.415Z,5.32
2023-09-26T17:16:58.339Z,5.85
2023-09-26T17:19:26.982Z,4.75
2023-09-26T17:21:54.559Z,5.47
2023-09-26T17:24:22.057Z,5.50
2023-09-26T17:26:50.889Z,4.82
2023-09-26T17:29:18.455Z,5.60
2023-09-26T17:31:46.295Z,5.50
2023-09-26T17:34:13.930Z,5.95
2023-09-26T17:36:41.551Z,5.47
2023-09-26T17:39:13.382Z,6.18
2023-09-26T17:41:43.910Z,6.22
2023-09-26T17:44:11.621Z,6.22
2023-09-26T17:46:43.697Z,7.15
2023-09-26T17:49:11.626Z,6.55
2023-09-26T17:51:42.227Z,7.72
2023-09-26T17:54:09.892Z,6.80
2023-09-26T17:56:37.494Z,7.82
2023-09-26T17:59:05.321Z,6.90
2023-09-26T18:01:33.534Z,7.53
2023-09-26T18:04:01.265Z,7.70
2023-09-26T18:06:29.161Z,7.57
2023-09-26T18:08:56.670Z,7.38
2023-09-26T18:11:24.255Z,7.53
2023-09-26T18:13:51.986Z,7.45
2023-09-26T18:16:19.703Z,6.57
2023-09-26T18:18:47.335Z,8.40
2023-09-26T18:21:15.025Z,7.22
2023-09-26T18:23:42.795Z,9.88
2023-09-26T18:26:10.472Z,8.02
2023-09-26T18:28:38.164Z,7.22
2023-09-26T18:31:06.206Z,8.00
2023-09-26T18:36:11.014Z,7.47
2023-09-26T18:38:39.312Z,7.60
2023-09-26T18:43:35.011Z,7.82
2023-09-26T18:46:02.646Z,8.45
2023-09-26T18:48:30.325Z,8.75
2023-09-26T18:51:04.546Z,7.55
2023-09-26T18:53:32.183Z,7.85
2023-09-26T18:55:59.728Z,8.30
2023-09-26T18:58:27.363Z,8.25
2023-09-26T19:00:55.493Z,7.80
2023-09-26T19:03:23.186Z,7.65
2023-09-26T19:05:54.242Z,8.77
2023-09-26T19:08:21.881Z,8.27
2023-09-26T19:10:50.645Z,7.53
2023-09-26T19:13:18.269Z,8.00
2023-09-26T19:15:45.816Z,8.18
2023-09-26T19:18:13.469Z,6.68
2023-09-26T19:20:41.222Z,8.43
2023-09-26T19:23:08.985Z,7.90
2023-09-26T19:25:39.360Z,8.32
2023-09-26T19:28:13.214Z,8.45
2023-09-26T19:30:44.832Z,11.02
2023-09-26T19:33:12.474Z,8.38
2023-09-26T19:35:40.300Z,9.05
2023-09-26T19:38:08.606Z,7.93
2023-09-26T19:40:36.310Z,9.32
2023-09-26T19:43:06.166Z,10.52
2023-09-26T19:45:37.954Z,10.98
2023-09-26T19:48:05.982Z,10.82
2023-09-26T19:50:33.661Z,10.30
2023-09-26T19:53:01.168Z,10.27
2023-09-26T19:55:28.962Z,10.90
2023-09-26T19:57:56.444Z,9.25
2023-09-26T20:00:29.149Z,10.07
2023-09-26T20:02:57.907Z,9.82
2023-09-26T20:05:25.564Z,8.98
2023-09-26T20:07:53.113Z,8.70
2023-09-26T20:10:20.777Z,9.05
2023-09-26T20:12:48.197Z,8.25
2023-09-26T20:15:23.710Z,8.95
2023-09-26T20:17:52.327Z,8.93
2023-09-26T20:20:20.003Z,11.15
2023-09-26T20:22:49.767Z,8.85
2023-09-26T20:25:18.262Z,8.45
2023-09-26T20:27:45.828Z,9.00
2023-09-26T20:30:14.140Z,11.07
2023-09-26T20:32:41.783Z,9.55
2023-09-26T20:35:09.665Z,8.95
2023-09-26T20:37:37.205Z,9.68
2023-09-26T20:40:05.264Z,8.55
2023-09-26T20:42:32.868Z,10.93
2023-09-26T20:45:00.428Z,9.30
2023-09-26T20:47:29.012Z,9.57
2023-09-26T20:49:56.641Z,9.65
2023-09-26T20:52:24.326Z,9.10
2023-09-26T20:54:51.954Z,9.57
2023-09-26T20:57:19.655Z,10.18
2023-09-26T20:59:47.208Z,10.23
2023-09-26T21:02:14.858Z,10.43
2023-09-26T21:04:42.533Z,9.95
2023-09-26T21:07:10.166Z,11.82
2023-09-26T21:09:37.628Z,10.77
2023-09-26T21:12:07.649Z,11.05
2023-09-26T21:14:38.148Z,9.77
2023-09-26T21:17:05.882Z,8.98
2023-09-26T21:19:34.013Z,9.77
2023-09-26T21:22:01.632Z,10.38
2023-09-26T21:24:29.144Z,11.25
2023-09-26T21:26:56.796Z,9.63
2023-09-26T21:29:24.245Z,9.77
2023-09-26T21:31:52.042Z,10.18
2023-09-26T21:34:19.714Z,10.40
2023-09-26T21:36:47.231Z,10.98
2023-09-26T21:39:14.737Z,10.02
2023-09-26T21:41:42.292Z,10.85
2023-09-26T21:44:09.876Z,10.80
2023-09-26T21:46:37.717Z,11.15
2023-09-26T21:49:05.337Z,9.13
2023-09-26T21:51:33.640Z,7.30
2023-09-26T21:54:01.164Z,10.45
2023-09-26T21:56:29.260Z,8.95
2023-09-26T21:58:57.051Z,10.80
2023-09-26T22:01:24.697Z,11.52
2023-09-26T22:03:52.543Z,10.93
2023-09-26T22:06:20.062Z,10.25
2023-09-26T22:08:47.633Z,10.55
2023-09-26T22:11:15.135Z,10.27
2023-09-26T22:13:42.749Z,12.27
2023-09-26T22:16:10.652Z,12.27
2023-09-26T22:18:39.392Z,12.27
2023-09-26T22:21:07.032Z,8.80
2023-09-26T22:23:34.616Z,9.57
2023-09-26T22:26:02.282Z,9.10
2023-09-26T22:28:29.958Z,9.77
2023-09-26T22:30:57.497Z,9.85
2023-09-26T22:33:25.476Z,11.57
2023-09-26T22:35:53.059Z,9.93
2023-09-26T22:38:20.595Z,9.10
2023-09-26T22:40:51.470Z,10.15
2023-09-26T22:43:20.738Z,10.27
2023-09-26T22:45:49.115Z,9.70
2023-09-26T22:48:17.405Z,10.13
2023-09-26T22:53:13.556Z,10.00
2023-09-26T22:55:41.259Z,11.02
2023-09-26T22:58:09.103Z,12.35
2023-09-26T23:00:36.688Z,11.30
2023-09-26T23:03:04.537Z,12.57
2023-09-26T23:05:41.548Z,10.85
2023-09-26T23:08:09.197Z,8.98
2023-09-26T23:10:37.049Z,10.10
2023-09-26T23:13:04.840Z,11.50
2023-09-26T23:15:32.685Z,13.60
2023-09-26T23:18:00.481Z,11.15
2023-09-26T23:20:28.114Z,10.25
2023-09-26T23:22:55.844Z,11.25
2023-09-26T23:25:23.515Z,11.80
2023-09-26T23:27:51.180Z,11.18
2023-09-26T23:30:18.783Z,10.45
2023-09-26T23:32:46.611Z,9.95
2023-09-26T23:35:21.169Z,8.88
2023-09-26T23:37:52.191Z,9.70
2023-09-26T23:40:23.341Z,10.85
2023-09-26T23:42:50.865Z,9.70
2023-09-26T23:45:18.445Z,9.20
2023-09-26T23:47:46.089Z,11.40
2023-09-26T23:50:13.669Z,8.25
2023-09-26T23:52:41.855Z,7.93
2023-09-26T23:55:10.226Z,11.73
2023-09-26T23:57:38.262Z,8.35
